createdAt,value
2023-04-22T00:00:04.546Z,12.04
2023-04-22T00:01:04.595Z,12.04
2023-04-22T00:02:04.603Z,12.03
2023-04-22T00:03:04.725Z,12.02
2023-04-22T00:05:31.748Z,12.02
2023-04-22T00:05:55.212Z,11.97
2023-04-22T00:06:36.395Z,11.99
2023-04-22T00:07:36.391Z,11.97
2023-04-22T00:08:36.381Z,11.95
2023-04-22T00:09:36.599Z,11.95
2023-04-22T00:10:36.355Z,11.91
2023-04-22T00:11:36.349Z,11.90
2023-04-22T00:12:36.317Z,11.90
2023-04-22T00:13:36.357Z,11.88
2023-04-22T00:14:36.309Z,11.88
2023-04-22T00:15:36.293Z,11.88
2023-04-22T00:16:36.448Z,11.87
2023-04-22T00:17:36.313Z,11.86
2023-04-22T00:18:36.283Z,11.87
2023-04-22T00:19:36.481Z,11.86
2023-04-22T00:20:36.236Z,11.84
2023-04-22T00:21:36.200Z,11.83
2023-04-22T00:22:36.171Z,11.81
2023-04-22T00:23:36.198Z,11.78
2023-04-22T00:24:36.161Z,11.80
2023-04-22T00:25:36.161Z,11.77
2023-04-22T00:26:36.126Z,11.75
2023-04-22T00:27:36.135Z,11.75
2023-04-22T00:28:36.109Z,11.72
2023-04-22T00:29:36.450Z,11.70
2023-04-22T00:30:36.121Z,11.72
2023-04-22T00:31:36.115Z,11.70
2023-04-22T00:32:36.101Z,11.69
2023-04-22T00:33:36.039Z,11.68
2023-04-22T00:34:36.047Z,11.66
2023-04-22T00:35:36.029Z,11.65
2023-04-22T00:36:35.989Z,11.63
2023-04-22T00:37:35.988Z,11.65
2023-04-22T00:38:35.985Z,11.62
2023-04-22T00:39:35.956Z,11.60
2023-04-22T00:40:35.945Z,11.57
2023-04-22T00:41:35.947Z,11.55
2023-04-22T00:42:35.913Z,11.55
2023-04-22T00:43:35.905Z,11.55
2023-04-22T00:44:35.886Z,11.54
2023-04-22T00:45:35.889Z,11.54
2023-04-22T00:46:35.900Z,11.52
2023-04-22T00:47:35.862Z,11.48
2023-04-22T00:48:35.830Z,11.51
2023-04-22T00:49:35.823Z,11.48
2023-04-22T00:50:35.819Z,11.48
2023-04-22T00:51:35.803Z,11.45
2023-04-22T00:52:35.779Z,11.45
2023-04-22T00:53:35.770Z,11.44
2023-04-22T00:54:35.770Z,11.45
2023-04-22T00:55:35.771Z,11.44
2023-04-22T00:56:35.728Z,11.41
2023-04-22T00:57:35.737Z,11.41
2023-04-22T00:58:35.723Z,11.41
2023-04-22T00:59:35.705Z,11.40
2023-04-22T01:00:35.707Z,11.40
2023-04-22T01:01:35.709Z,11.40
2023-04-22T01:02:35.765Z,11.37
2023-04-22T01:03:35.798Z,11.37
2023-04-22T01:04:35.633Z,11.37
2023-04-22T01:05:35.639Z,11.36
2023-04-22T01:06:35.601Z,11.36
2023-04-22T01:07:35.610Z,11.33
2023-04-22T01:08:35.586Z,11.32
2023-04-22T01:09:35.572Z,11.33
2023-04-22T01:10:35.568Z,11.32
2023-04-22T01:11:35.541Z,11.30
2023-04-22T01:12:35.535Z,11.29
2023-04-22T01:13:35.530Z,11.27
2023-04-22T01:14:35.494Z,11.27
2023-04-22T01:15:44.174Z,11.25
2023-04-22T01:16:35.501Z,11.23
2023-04-22T01:17:35.551Z,11.23
2023-04-22T01:18:35.453Z,11.23
2023-04-22T01:19:35.559Z,11.22
2023-04-22T01:20:35.432Z,11.19
2023-04-22T01:21:35.423Z,11.18
2023-04-22T01:22:35.401Z,11.18
2023-04-22T01:23:35.398Z,11.17
2023-04-22T01:24:35.365Z,11.17
2023-04-22T01:25:35.373Z,11.17
2023-04-22T01:26:35.351Z,11.15
2023-04-22T01:27:35.343Z,11.14
2023-04-22T01:28:35.334Z,11.12
2023-04-22T01:29:35.334Z,11.12
2023-04-22T01:30:35.310Z,11.12
2023-04-22T01:31:35.329Z,11.11
2023-04-22T01:32:42.358Z,11.10
2023-04-22T01:33:35.267Z,11.10
2023-04-22T01:34:35.250Z,11.08
2023-04-22T01:35:35.241Z,11.10
2023-04-22T01:36:35.232Z,11.07
2023-04-22T01:37:35.199Z,11.05
2023-04-22T01:38:35.193Z,11.05
2023-04-22T01:39:35.170Z,11.04
2023-04-22T01:40:35.170Z,11.04
2023-04-22T01:41:35.156Z,11.04
2023-04-22T01:42:35.148Z,11.02
2023-04-22T01:43:35.125Z,11.02
2023-04-22T01:44:35.122Z,11.00
2023-04-22T01:45:35.206Z,11.00
2023-04-22T01:46:35.241Z,10.99
2023-04-22T01:47:35.155Z,10.97
2023-04-22T01:48:35.065Z,10.97
2023-04-22T01:49:35.048Z,10.97
2023-04-22T01:50:35.034Z,10.94
2023-04-22T01:51:35.024Z,10.94
2023-04-22T01:52:35.004Z,10.94
2023-04-22T01:53:35.001Z,10.92
2023-04-22T01:54:34.991Z,10.93
2023-04-22T01:55:34.970Z,10.92
2023-04-22T01:56:35.000Z,10.90
2023-04-22T01:57:34.983Z,10.90
2023-04-22T01:58:34.929Z,10.89
2023-04-22T01:59:34.938Z,10.87
2023-04-22T02:00:34.910Z,10.87
2023-04-22T02:01:34.956Z,10.89
2023-04-22T02:02:35.026Z,10.86
2023-04-22T02:03:34.985Z,10.86
2023-04-22T02:04:34.926Z,10.86
2023-04-22T02:05:34.840Z,10.86
2023-04-22T02:06:34.845Z,10.86
2023-04-22T02:07:34.806Z,10.86
2023-04-22T02:08:34.815Z,10.84
2023-04-22T02:09:34.789Z,10.82
2023-04-22T02:10:34.778Z,10.82
2023-04-22T02:11:34.777Z,10.81
2023-04-22T02:12:34.749Z,10.81
2023-04-22T02:13:34.744Z,10.81
2023-04-22T02:14:34.731Z,10.78
2023-04-22T02:15:34.768Z,10.76
2023-04-22T02:16:34.716Z,10.75
2023-04-22T02:17:34.687Z,10.75
2023-04-22T02:18:34.669Z,10.76
2023-04-22T02:19:34.682Z,10.74
2023-04-22T02:20:34.655Z,10.71
2023-04-22T02:21:34.652Z,10.74
2023-04-22T02:22:34.623Z,10.74
2023-04-22T02:23:34.606Z,10.71
2023-04-22T02:24:34.598Z,10.71
2023-04-22T02:25:34.581Z,10.69
2023-04-22T02:26:34.575Z,10.67
2023-04-22T02:27:34.550Z,10.67
2023-04-22T02:28:34.543Z,10.67
2023-04-22T02:29:34.554Z,10.67
2023-04-22T02:30:34.525Z,10.64
2023-04-22T02:31:34.591Z,10.64
2023-04-22T02:32:34.541Z,10.61
2023-04-22T02:33:34.489Z,10.64
2023-04-22T02:34:34.464Z,10.63
2023-04-22T02:35:34.451Z,10.64
2023-04-22T02:36:34.455Z,10.61
2023-04-22T02:37:34.418Z,10.60
2023-04-22T02:38:34.426Z,10.60
2023-04-22T02:39:34.409Z,10.59
2023-04-22T02:40:34.386Z,10.56
2023-04-22T02:41:34.388Z,10.56
2023-04-22T02:42:34.384Z,10.53
2023-04-22T02:43:34.343Z,10.54
2023-04-22T02:44:34.341Z,10.56
2023-04-22T02:45:34.335Z,10.54
2023-04-22T02:46:34.379Z,10.53
2023-04-22T02:47:34.330Z,10.51
2023-04-22T02:48:34.298Z,10.51
2023-04-22T02:49:34.270Z,10.48
2023-04-22T02:50:34.258Z,10.46
2023-04-22T02:51:34.261Z,10.46
2023-04-22T02:52:34.237Z,10.46
2023-04-22T02:53:34.211Z,10.42
2023-04-22T02:54:34.205Z,10.42
2023-04-22T02:55:34.202Z,10.40
2023-04-22T02:56:34.198Z,10.40
2023-04-22T02:57:34.161Z,10.37
2023-04-22T02:58:34.159Z,10.34
2023-04-22T02:59:34.138Z,10.33
2023-04-22T03:00:34.148Z,10.31
2023-04-22T03:01:34.210Z,10.28
2023-04-22T03:02:34.243Z,10.28
2023-04-22T03:03:34.328Z,10.25
2023-04-22T03:04:34.168Z,10.23
2023-04-22T03:05:34.069Z,10.20
2023-04-22T03:06:34.061Z,10.19
2023-04-22T03:07:34.036Z,10.17
2023-04-22T03:08:34.031Z,10.15
2023-04-22T03:09:34.014Z,10.12
2023-04-22T03:10:34.004Z,10.10
2023-04-22T03:11:33.989Z,10.09
2023-04-22T03:12:33.975Z,10.07
2023-04-22T03:13:33.970Z,10.07
2023-04-22T03:14:33.952Z,10.05
2023-04-22T03:15:33.956Z,10.04
2023-04-22T03:16:33.953Z,9.99
2023-04-22T03:17:33.950Z,9.99
2023-04-22T03:18:33.898Z,9.98
2023-04-22T03:19:33.882Z,9.97
2023-04-22T03:20:33.881Z,9.97
2023-04-22T03:21:33.857Z,9.95
2023-04-22T03:22:33.838Z,9.92
2023-04-22T03:23:33.826Z,9.94
2023-04-22T03:24:33.827Z,9.92
2023-04-22T03:25:33.804Z,9.92
2023-04-22T03:26:33.801Z,9.92
2023-04-22T03:27:33.770Z,9.91
2023-04-22T03:28:33.759Z,9.87
2023-04-22T03:29:33.753Z,9.86
2023-04-22T03:30:33.742Z,9.83
2023-04-22T03:31:33.777Z,9.83
2023-04-22T03:32:33.787Z,9.83
2023-04-22T03:33:33.704Z,9.80
2023-04-22T03:34:35.856Z,9.79
2023-04-22T03:35:33.677Z,9.77
2023-04-22T03:36:33.670Z,9.76
2023-04-22T03:37:33.638Z,9.76
2023-04-22T03:38:33.631Z,9.73
2023-04-22T03:39:33.620Z,9.69
2023-04-22T03:40:33.613Z,9.68
2023-04-22T03:41:33.599Z,9.68
2023-04-22T03:42:33.579Z,9.65
2023-04-22T03:43:33.563Z,9.65
2023-04-22T03:44:33.565Z,9.64
2023-04-22T03:45:33.573Z,9.61
2023-04-22T03:46:33.566Z,9.58
2023-04-22T03:47:33.550Z,9.56
2023-04-22T03:48:33.508Z,9.56
2023-04-22T03:49:33.499Z,9.55
2023-04-22T03:50:33.494Z,9.54
2023-04-22T03:51:33.471Z,9.54
2023-04-22T03:52:33.445Z,9.51
2023-04-22T03:53:33.434Z,9.51
2023-04-22T03:54:33.425Z,9.51
2023-04-22T03:55:33.407Z,9.50
2023-04-22T03:56:33.411Z,9.50
2023-04-22T03:57:33.383Z,9.48
2023-04-22T03:58:33.373Z,9.46
2023-04-22T03:59:33.346Z,9.44
2023-04-22T04:00:33.355Z,9.43
2023-04-22T04:01:33.344Z,9.43
2023-04-22T04:02:33.448Z,9.41
2023-04-22T04:03:33.654Z,9.40
2023-04-22T04:04:33.677Z,9.39
2023-04-22T04:05:33.359Z,9.37
2023-04-22T04:06:33.289Z,9.36
2023-04-22T04:07:33.244Z,9.36
2023-04-22T04:08:33.245Z,9.32
2023-04-22T04:09:33.225Z,9.32
2023-04-22T04:10:33.219Z,9.34
2023-04-22T04:11:33.204Z,9.34
2023-04-22T04:12:33.183Z,9.34
2023-04-22T04:13:33.164Z,9.36
2023-04-22T04:14:33.156Z,9.36
2023-04-22T04:15:33.242Z,9.36
2023-04-22T04:16:33.182Z,9.34
2023-04-22T04:17:33.128Z,9.34
2023-04-22T04:18:33.104Z,9.34
2023-04-22T04:19:33.098Z,9.36
2023-04-22T04:20:33.094Z,9.36
2023-04-22T04:21:33.077Z,9.36
2023-04-22T04:22:33.054Z,9.39
2023-04-22T04:23:33.042Z,9.40
2023-04-22T04:24:33.045Z,9.44
2023-04-22T04:25:33.015Z,9.44
2023-04-22T04:26:33.021Z,9.46
2023-04-22T04:27:32.985Z,9.48
2023-04-22T04:28:32.994Z,9.50
2023-04-22T04:29:32.957Z,9.50
2023-04-22T04:30:33.584Z,9.50
2023-04-22T04:31:32.980Z,9.51
2023-04-22T04:32:32.943Z,9.54
2023-04-22T04:33:32.919Z,9.56
2023-04-22T04:34:32.900Z,9.58
2023-04-22T04:35:32.881Z,9.59
2023-04-22T04:36:32.968Z,9.61
2023-04-22T04:37:32.858Z,9.61
2023-04-22T04:38:32.848Z,9.59
2023-04-22T04:39:32.848Z,9.62
2023-04-22T04:40:32.834Z,9.62
2023-04-22T04:41:32.803Z,9.64
2023-04-22T04:42:32.798Z,9.64
2023-04-22T04:43:32.777Z,9.66
2023-04-22T04:44:32.789Z,9.66
2023-04-22T04:45:32.750Z,9.69
2023-04-22T04:46:32.777Z,9.69
2023-04-22T04:47:32.834Z,9.72
2023-04-22T04:48:32.726Z,9.73
2023-04-22T04:49:32.701Z,9.73
2023-04-22T04:50:32.688Z,9.74
2023-04-22T04:51:32.697Z,9.77
2023-04-22T04:52:32.667Z,9.79
2023-04-22T04:53:32.663Z,9.80
2023-04-22T04:54:32.649Z,9.83
2023-04-22T04:55:32.618Z,9.84
2023-04-22T04:56:32.632Z,9.86
2023-04-22T04:57:32.590Z,9.89
2023-04-22T04:58:32.593Z,9.92
2023-04-22T04:59:32.575Z,9.94
2023-04-22T05:00:32.575Z,9.98
2023-04-22T05:01:32.579Z,10.01
2023-04-22T05:02:32.624Z,10.04
2023-04-22T05:03:32.620Z,10.07
2023-04-22T05:04:32.660Z,10.12
2023-04-22T05:05:32.490Z,10.16
2023-04-22T05:06:32.517Z,10.20
2023-04-22T05:07:32.466Z,10.26
2023-04-22T05:08:32.494Z,10.31
2023-04-22T05:09:32.446Z,10.33
2023-04-22T05:10:32.432Z,10.38
2023-04-22T05:11:32.429Z,10.44
2023-04-22T05:12:32.408Z,10.48
2023-04-22T05:13:32.388Z,10.53
2023-04-22T05:14:32.378Z,10.59
2023-04-22T05:15:32.363Z,10.61
2023-04-22T05:16:32.391Z,10.69
2023-04-22T05:17:32.355Z,10.72
2023-04-22T05:18:32.329Z,10.76
2023-04-22T05:19:32.309Z,10.81
2023-04-22T05:20:35.381Z,10.87
2023-04-22T05:21:32.292Z,10.96
2023-04-22T05:22:32.278Z,11.07
2023-04-22T05:23:32.267Z,11.18
2023-04-22T05:24:32.246Z,11.29
2023-04-22T05:25:32.228Z,11.40
2023-04-22T05:26:32.258Z,11.52
2023-04-22T05:27:32.220Z,11.63
2023-04-22T05:28:32.191Z,11.70
2023-04-22T05:29:32.180Z,11.78
2023-04-22T05:30:32.172Z,11.87
2023-04-22T05:31:32.211Z,11.95
2023-04-22T05:32:32.169Z,12.04
2023-04-22T05:33:32.126Z,12.12
2023-04-22T05:34:32.118Z,12.18
2023-04-22T05:35:32.109Z,12.28
2023-04-22T05:36:32.106Z,12.40
2023-04-22T05:37:32.086Z,12.49
2023-04-22T05:38:32.067Z,12.60
2023-04-22T05:39:32.055Z,12.72
2023-04-22T05:40:32.031Z,12.80
2023-04-22T05:41:32.027Z,12.87
2023-04-22T05:42:32.016Z,13.01
2023-04-22T05:43:31.996Z,13.11
2023-04-22T05:44:31.974Z,13.18
2023-04-22T05:45:32.042Z,13.28
2023-04-22T05:46:31.989Z,13.44
2023-04-22T05:47:31.957Z,13.57
2023-04-22T05:48:31.925Z,13.70
2023-04-22T05:49:31.926Z,13.78
2023-04-22T05:50:31.910Z,13.89
2023-04-22T05:51:31.890Z,14.05
2023-04-22T05:52:31.879Z,14.15
2023-04-22T05:53:31.871Z,14.28
2023-04-22T05:54:31.854Z,14.36
2023-04-22T05:55:31.849Z,14.45
2023-04-22T05:56:31.823Z,14.58
2023-04-22T05:57:31.847Z,14.77
2023-04-22T05:58:31.792Z,14.96
2023-04-22T05:59:31.788Z,15.11
2023-04-22T06:00:31.777Z,15.29
2023-04-22T06:01:31.755Z,15.43
2023-04-22T06:02:31.888Z,15.55
2023-04-22T06:03:31.909Z,15.70
2023-04-22T06:04:34.545Z,15.86
2023-04-22T06:05:31.833Z,16.05
2023-04-22T06:06:31.707Z,16.21
2023-04-22T06:07:31.689Z,16.31
2023-04-22T06:08:31.672Z,16.41
2023-04-22T06:09:31.659Z,16.54
2023-04-22T06:10:31.661Z,16.65
2023-04-22T06:11:31.633Z,16.78
2023-04-22T06:12:31.651Z,16.91
2023-04-22T06:13:31.600Z,17.06
2023-04-22T06:14:31.592Z,17.22
2023-04-22T06:15:31.601Z,17.38
2023-04-22T06:16:31.550Z,17.52
2023-04-22T06:17:31.581Z,17.64
2023-04-22T06:18:31.534Z,17.72
2023-04-22T06:19:31.523Z,17.87
2023-04-22T06:20:31.518Z,18.03
2023-04-22T06:21:31.496Z,18.16
2023-04-22T06:22:31.490Z,18.29
2023-04-22T06:23:31.559Z,18.43
2023-04-22T06:24:31.454Z,18.55
2023-04-22T06:25:31.441Z,18.63
2023-04-22T06:26:31.428Z,18.71
2023-04-22T06:27:31.423Z,18.86
2023-04-22T06:28:31.401Z,18.99
2023-04-22T06:29:31.401Z,19.09
2023-04-22T06:30:31.367Z,19.22
2023-04-22T06:31:31.399Z,19.36
2023-04-22T06:32:31.382Z,19.51
2023-04-22T06:33:31.348Z,19.66
2023-04-22T06:34:31.317Z,19.79
2023-04-22T06:35:31.315Z,19.84
2023-04-22T06:36:31.306Z,19.89
2023-04-22T06:37:31.295Z,19.99
2023-04-22T06:38:31.265Z,20.09
2023-04-22T06:39:31.264Z,20.24
2023-04-22T06:40:31.243Z,20.39
2023-04-22T06:41:31.245Z,20.56
2023-04-22T06:42:31.230Z,20.69
2023-04-22T06:43:31.208Z,20.82
2023-04-22T06:44:31.195Z,20.93
2023-04-22T06:45:31.175Z,21.07
2023-04-22T06:46:31.181Z,21.17
2023-04-22T06:47:31.182Z,21.25
2023-04-22T06:48:31.160Z,21.39
2023-04-22T06:49:31.125Z,21.54
2023-04-22T06:50:31.108Z,21.67
2023-04-22T06:51:31.165Z,21.77
2023-04-22T06:52:31.093Z,21.83
2023-04-22T06:53:31.076Z,21.96
2023-04-22T06:54:31.054Z,22.10
2023-04-22T06:55:31.044Z,22.25
2023-04-22T06:56:31.032Z,22.29
2023-04-22T06:57:31.036Z,22.30
2023-04-22T06:58:30.998Z,22.30
2023-04-22T06:59:30.993Z,22.43
2023-04-22T07:00:30.972Z,22.57
2023-04-22T07:01:30.982Z,22.75
2023-04-22T07:02:31.036Z,22.93
2023-04-22T07:03:31.035Z,23.09
2023-04-22T07:04:30.973Z,23.15
2023-04-22T07:05:30.928Z,23.23
2023-04-22T07:06:30.992Z,23.32
2023-04-22T07:07:30.940Z,23.46
2023-04-22T07:08:30.875Z,23.44
2023-04-22T07:09:30.863Z,23.44
2023-04-22T07:10:30.860Z,23.51
2023-04-22T07:11:30.870Z,23.65
2023-04-22T07:12:30.843Z,23.80
2023-04-22T07:13:30.812Z,23.88
2023-04-22T07:14:30.820Z,24.01
2023-04-22T07:15:30.783Z,24.16
2023-04-22T07:16:30.820Z,24.29
2023-04-22T07:17:30.799Z,24.42
2023-04-22T07:18:30.737Z,24.54
2023-04-22T07:19:32.038Z,24.68
2023-04-22T07:20:30.718Z,24.85
2023-04-22T07:21:30.714Z,24.98
2023-04-22T07:22:30.699Z,25.08
2023-04-22T07:23:30.682Z,25.14
2023-04-22T07:24:30.666Z,25.14
2023-04-22T07:25:30.652Z,25.25
2023-04-22T07:26:30.658Z,25.35
2023-04-22T07:27:30.648Z,25.48
2023-04-22T07:28:30.609Z,25.62
2023-04-22T07:29:30.614Z,25.70
2023-04-22T07:30:30.582Z,25.72
2023-04-22T07:31:30.595Z,25.73
2023-04-22T07:32:30.612Z,25.66
2023-04-22T07:33:30.548Z,25.66
2023-04-22T07:34:30.533Z,25.73
2023-04-22T07:35:30.528Z,25.85
2023-04-22T07:36:30.517Z,25.95
2023-04-22T07:37:30.670Z,26.03
2023-04-22T07:38:30.536Z,26.15
2023-04-22T07:39:30.599Z,26.26
2023-04-22T07:40:30.463Z,26.40
2023-04-22T07:41:30.459Z,26.47
2023-04-22T07:42:30.457Z,26.55
2023-04-22T07:43:30.422Z,26.65
2023-04-22T07:44:30.404Z,26.75
2023-04-22T07:45:30.465Z,26.88
2023-04-22T07:46:30.377Z,27.03
2023-04-22T07:47:30.445Z,27.14
2023-04-22T07:48:30.368Z,27.29
2023-04-22T07:49:30.343Z,27.39
2023-04-22T07:50:30.322Z,27.49
2023-04-22T07:51:30.328Z,27.59
2023-04-22T07:52:30.310Z,27.64
2023-04-22T07:53:30.299Z,27.64
2023-04-22T07:54:30.274Z,27.68
2023-04-22T07:55:30.280Z,27.75
2023-04-22T07:56:30.308Z,27.80
2023-04-22T07:57:30.273Z,27.83
2023-04-22T07:58:30.223Z,27.85
2023-04-22T07:59:30.215Z,27.86
2023-04-22T08:00:30.260Z,27.96
2023-04-22T08:01:30.185Z,28.08
2023-04-22T08:02:30.314Z,28.20
2023-04-22T08:03:30.310Z,28.27
2023-04-22T08:04:30.307Z,28.35
2023-04-22T08:05:30.134Z,28.42
2023-04-22T08:06:30.123Z,28.52
2023-04-22T08:07:33.152Z,28.60
2023-04-22T08:08:30.093Z,28.66
2023-04-22T08:09:30.087Z,28.74
2023-04-22T08:10:30.079Z,28.81
2023-04-22T08:11:30.063Z,28.91
2023-04-22T08:12:30.055Z,28.98
2023-04-22T08:13:30.040Z,29.08
2023-04-22T08:14:30.019Z,29.16
2023-04-22T08:15:30.019Z,29.20
2023-04-22T08:16:30.054Z,29.26
2023-04-22T08:17:30.007Z,29.31
2023-04-22T08:18:29.966Z,29.36
2023-04-22T08:19:29.964Z,29.42
2023-04-22T08:20:29.961Z,29.51
2023-04-22T08:21:29.952Z,29.59
2023-04-22T08:22:29.933Z,29.63
2023-04-22T08:23:29.918Z,29.57
2023-04-22T08:24:29.894Z,29.57
2023-04-22T08:25:29.882Z,29.54
2023-04-22T08:26:29.865Z,29.60
2023-04-22T08:27:29.914Z,29.73
2023-04-22T08:28:29.850Z,29.84
2023-04-22T08:29:29.859Z,29.95
2023-04-22T08:30:29.809Z,30.09
2023-04-22T08:31:29.840Z,30.24
2023-04-22T08:32:29.824Z,30.31
2023-04-22T08:33:29.770Z,30.37
2023-04-22T08:34:29.758Z,30.47
2023-04-22T08:35:29.794Z,30.61
2023-04-22T08:36:29.730Z,30.77
2023-04-22T08:37:29.729Z,30.88
2023-04-22T08:38:29.704Z,31.00
2023-04-22T08:39:29.691Z,31.06
2023-04-22T08:40:29.671Z,31.09
2023-04-22T08:41:29.672Z,31.12
2023-04-22T08:42:29.663Z,31.15
2023-04-22T08:43:29.641Z,31.20
2023-04-22T08:44:29.621Z,31.20
2023-04-22T08:45:29.622Z,31.22
2023-04-22T08:46:29.610Z,31.28
2023-04-22T08:47:29.626Z,31.33
2023-04-22T08:48:29.605Z,31.37
2023-04-22T08:49:29.562Z,31.47
2023-04-22T08:50:29.545Z,31.58
2023-04-22T08:51:29.538Z,31.65
2023-04-22T08:52:29.524Z,31.71
2023-04-22T08:53:29.527Z,31.81
2023-04-22T08:54:29.495Z,31.85
2023-04-22T08:55:29.491Z,31.93
2023-04-22T08:56:29.467Z,32.03
2023-04-22T08:57:29.481Z,32.16
2023-04-22T08:58:29.443Z,32.30
2023-04-22T08:59:29.433Z,32.38
2023-04-22T09:00:29.408Z,32.46
2023-04-22T09:01:29.494Z,32.56
2023-04-22T09:02:29.433Z,32.59
2023-04-22T09:03:29.476Z,32.67
2023-04-22T09:04:29.452Z,32.73
2023-04-22T09:05:29.364Z,32.80
2023-04-22T09:06:29.332Z,32.90
2023-04-22T09:07:29.336Z,33.00
2023-04-22T09:08:29.306Z,33.07
2023-04-22T09:09:29.304Z,33.19
2023-04-22T09:10:29.304Z,33.28
2023-04-22T09:11:29.273Z,33.28
2023-04-22T09:12:29.280Z,33.32
2023-04-22T09:13:29.256Z,33.40
2023-04-22T09:14:29.226Z,33.50
2023-04-22T09:15:29.236Z,33.64
2023-04-22T09:16:29.221Z,33.67
2023-04-22T09:17:29.236Z,33.73
2023-04-22T09:18:29.189Z,33.86
2023-04-22T09:19:29.166Z,33.96
2023-04-22T09:20:29.158Z,33.96
2023-04-22T09:21:29.146Z,33.89
2023-04-22T09:22:29.153Z,33.79
2023-04-22T09:23:29.118Z,33.83
2023-04-22T09:24:29.097Z,33.95
2023-04-22T09:25:29.085Z,34.10
2023-04-22T09:26:29.074Z,34.24
2023-04-22T09:27:29.078Z,34.40
2023-04-22T09:28:29.053Z,34.51
2023-04-22T09:29:29.044Z,34.58
2023-04-22T09:30:29.026Z,34.47
2023-04-22T09:31:29.051Z,34.23
2023-04-22T09:32:29.060Z,33.99
2023-04-22T09:33:28.990Z,34.02
2023-04-22T09:34:29.062Z,34.03
2023-04-22T09:35:28.979Z,34.06
2023-04-22T09:36:28.959Z,34.05
2023-04-22T09:37:39.005Z,34.06
2023-04-22T09:38:29.935Z,34.20
2023-04-22T09:39:28.906Z,34.33
2023-04-22T09:40:28.887Z,34.47
2023-04-22T09:41:28.905Z,34.47
2023-04-22T09:42:28.876Z,34.29
2023-04-22T09:43:28.857Z,34.11
2023-04-22T09:44:28.837Z,33.99
2023-04-22T09:45:28.861Z,34.01
2023-04-22T09:46:28.945Z,34.03
2023-04-22T09:47:28.856Z,34.14
2023-04-22T09:48:28.788Z,34.16
2023-04-22T09:49:28.780Z,34.21
2023-04-22T09:50:28.760Z,34.38
2023-04-22T09:51:28.747Z,34.55
2023-04-22T09:52:28.747Z,34.67
2023-04-22T09:53:28.713Z,34.88
2023-04-22T09:54:28.727Z,35.08
2023-04-22T09:55:28.695Z,35.22
2023-04-22T09:56:28.687Z,35.30
2023-04-22T09:57:28.678Z,35.39
2023-04-22T09:58:28.663Z,35.49
2023-04-22T09:59:28.686Z,35.58
2023-04-22T10:00:28.651Z,35.67
2023-04-22T10:01:28.634Z,35.71
2023-04-22T10:02:28.761Z,35.71
2023-04-22T10:03:28.625Z,35.67
2023-04-22T10:04:28.773Z,35.53
2023-04-22T10:05:28.570Z,35.51
2023-04-22T10:06:28.571Z,35.44
2023-04-22T10:07:28.579Z,35.12
2023-04-22T10:08:28.528Z,34.85
2023-04-22T10:09:28.520Z,34.85
2023-04-22T10:10:28.512Z,34.77
2023-04-22T10:11:28.500Z,34.67
2023-04-22T10:12:35.197Z,34.73
2023-04-22T10:13:29.484Z,34.89
2023-04-22T10:14:28.460Z,35.11
2023-04-22T10:15:28.439Z,35.34
2023-04-22T10:16:28.442Z,35.58
2023-04-22T10:17:28.446Z,35.64
2023-04-22T10:18:28.409Z,35.70
2023-04-22T10:19:28.389Z,35.78
2023-04-22T10:20:28.386Z,35.88
2023-04-22T10:21:28.357Z,35.98
2023-04-22T10:22:28.361Z,36.09
2023-04-22T10:23:28.328Z,36.24
2023-04-22T10:24:28.327Z,36.33
2023-04-22T10:25:28.313Z,36.43
2023-04-22T10:26:28.310Z,36.54
2023-04-22T10:27:28.301Z,36.55
2023-04-22T10:28:28.283Z,36.55
2023-04-22T10:29:28.260Z,36.51
2023-04-22T10:30:28.249Z,36.49
2023-04-22T10:31:28.308Z,36.45
2023-04-22T10:32:28.265Z,36.43
2023-04-22T10:33:28.208Z,36.21
2023-04-22T10:34:28.200Z,36.05
2023-04-22T10:35:28.177Z,36.02
2023-04-22T10:36:28.170Z,36.05
2023-04-22T10:37:28.170Z,36.09
2023-04-22T10:38:28.149Z,36.16
2023-04-22T10:39:28.138Z,36.20
2023-04-22T10:40:28.128Z,36.08
2023-04-22T10:41:28.359Z,35.92
2023-04-22T10:42:28.108Z,35.90
2023-04-22T10:43:28.088Z,35.93
2023-04-22T10:44:28.069Z,35.92
2023-04-22T10:45:28.060Z,35.83
2023-04-22T10:46:28.068Z,35.80
2023-04-22T10:47:28.048Z,35.71
2023-04-22T10:48:28.240Z,35.53
2023-04-22T10:49:28.006Z,35.41
2023-04-22T10:50:28.014Z,35.26
2023-04-22T10:51:27.976Z,35.17
2023-04-22T10:52:28.024Z,35.08
2023-04-22T10:53:27.962Z,35.08
2023-04-22T10:54:31.120Z,34.99
2023-04-22T10:55:27.934Z,34.58
2023-04-22T10:56:27.926Z,34.32
2023-04-22T10:57:27.913Z,34.16
2023-04-22T10:58:27.902Z,34.02
2023-04-22T10:59:27.883Z,33.89
2023-04-22T11:00:30.962Z,33.76
2023-04-22T11:01:28.962Z,33.64
2023-04-22T11:02:28.032Z,33.57
2023-04-22T11:03:28.302Z,33.49
2023-04-22T11:04:27.908Z,33.42
2023-04-22T11:05:27.842Z,33.36
2023-04-22T11:06:27.825Z,33.31
2023-04-22T11:07:27.828Z,33.20
2023-04-22T11:08:27.778Z,33.11
2023-04-22T11:09:27.754Z,33.02
2023-04-22T11:10:27.749Z,32.93
2023-04-22T11:11:27.740Z,32.86
2023-04-22T11:12:27.735Z,32.80
2023-04-22T11:13:27.713Z,32.65
2023-04-22T11:14:27.703Z,32.45
2023-04-22T11:15:27.686Z,32.16
2023-04-22T11:16:27.747Z,32.08
2023-04-22T11:17:27.681Z,32.08
2023-04-22T11:18:27.664Z,32.09
2023-04-22T11:19:27.629Z,32.08
2023-04-22T11:20:27.633Z,32.03
2023-04-22T11:21:27.618Z,31.99
2023-04-22T11:22:27.616Z,32.00
2023-04-22T11:23:27.591Z,31.99
2023-04-22T11:24:27.576Z,31.99
2023-04-22T11:25:27.569Z,32.03
2023-04-22T11:26:27.548Z,32.09
2023-04-22T11:27:27.546Z,31.85
2023-04-22T11:28:27.527Z,31.58
2023-04-22T11:29:27.517Z,31.46
2023-04-22T11:30:27.497Z,31.43
2023-04-22T11:31:27.518Z,31.47
2023-04-22T11:32:27.508Z,31.55
2023-04-22T11:33:27.466Z,31.64
2023-04-22T11:34:27.453Z,31.56
2023-04-22T11:35:27.432Z,31.59
2023-04-22T11:36:27.448Z,31.61
2023-04-22T11:37:27.424Z,31.62
2023-04-22T11:38:27.407Z,31.66
2023-04-22T11:39:27.384Z,31.64
2023-04-22T11:40:31.516Z,31.64
2023-04-22T11:41:27.360Z,31.64
2023-04-22T11:42:27.359Z,31.58
2023-04-22T11:43:27.345Z,31.56
2023-04-22T11:44:27.337Z,31.58
2023-04-22T11:45:27.356Z,31.56
2023-04-22T11:46:27.392Z,31.52
2023-04-22T11:47:27.450Z,31.34
2023-04-22T11:48:27.272Z,31.09
2023-04-22T11:49:27.250Z,30.97
2023-04-22T11:50:27.251Z,30.97
2023-04-22T11:51:27.229Z,31.03
2023-04-22T11:52:27.232Z,31.14
2023-04-22T11:53:27.215Z,31.22
2023-04-22T11:54:27.204Z,31.24
2023-04-22T11:55:27.192Z,31.22
2023-04-22T11:56:27.178Z,31.24
2023-04-22T11:57:27.170Z,31.21
2023-04-22T11:58:27.191Z,31.15
2023-04-22T11:59:27.141Z,31.20
2023-04-22T12:00:27.124Z,31.24
2023-04-22T12:01:27.108Z,31.22
2023-04-22T12:02:27.406Z,31.21
2023-04-22T12:03:27.252Z,31.24
2023-04-22T12:04:27.067Z,31.25
2023-04-22T12:05:27.113Z,31.31
2023-04-22T12:06:27.051Z,31.28
2023-04-22T12:07:27.042Z,31.14
2023-04-22T12:08:27.015Z,31.05
2023-04-22T12:09:26.999Z,31.07
2023-04-22T12:10:26.990Z,31.12
2023-04-22T12:11:26.972Z,31.21
2023-04-22T12:12:26.992Z,31.25
2023-04-22T12:13:26.946Z,31.33
2023-04-22T12:14:26.939Z,31.40
2023-04-22T12:15:26.928Z,31.47
2023-04-22T12:16:26.941Z,31.55
2023-04-22T12:17:26.989Z,31.56
2023-04-22T12:18:26.896Z,31.55
2023-04-22T12:19:26.895Z,31.39
2023-04-22T12:20:26.921Z,31.22
2023-04-22T12:21:26.841Z,31.10
2023-04-22T12:22:26.839Z,31.07
2023-04-22T12:23:26.848Z,31.09
2023-04-22T12:24:26.802Z,31.07
2023-04-22T12:25:26.784Z,31.12
2023-04-22T12:26:27.538Z,31.00
2023-04-22T12:27:26.765Z,30.90
2023-04-22T12:28:26.771Z,30.81
2023-04-22T12:29:26.887Z,30.78
2023-04-22T12:30:26.725Z,30.83
2023-04-22T12:31:26.889Z,30.87
2023-04-22T12:32:26.703Z,30.88
2023-04-22T12:33:26.757Z,30.94
2023-04-22T12:34:26.684Z,30.97
2023-04-22T12:35:26.667Z,30.96
2023-04-22T12:36:26.663Z,30.99
2023-04-22T12:37:26.639Z,31.00
2023-04-22T12:38:26.699Z,30.91
2023-04-22T12:39:26.613Z,30.91
2023-04-22T12:40:26.597Z,30.92
2023-04-22T12:41:26.590Z,30.97
2023-04-22T12:42:26.573Z,31.02
2023-04-22T12:43:26.567Z,31.06
2023-04-22T12:44:26.546Z,31.03
2023-04-22T12:45:26.546Z,31.02
2023-04-22T12:46:26.565Z,31.07
2023-04-22T12:47:26.524Z,31.09
2023-04-22T12:48:26.505Z,31.15
2023-04-22T12:49:26.500Z,31.22
2023-04-22T12:50:26.472Z,31.27
2023-04-22T12:51:26.452Z,31.25
2023-04-22T12:52:26.442Z,31.20
2023-04-22T12:53:26.432Z,31.18
2023-04-22T12:54:26.412Z,31.14
2023-04-22T12:55:26.409Z,31.00
2023-04-22T12:56:26.390Z,30.99